Alberta, VA

7:56 PM EDT on October 22, 2014 (GMT -0400)
Mecklenburg-Brunswick Regional | Change Station
CLOSE
Current Station
Airport
Location: South Hill,
Elevation: 443 ft
Nearby Weather Stations

Elev 443 ft 36.69 °N, 78.05 °W | Updated 21 minutes ago

Overcast
Overcast
57 °F
Feels Like 57 °F
N
8
Wind Variable Wind from North

Today
High -- | Low -- °F
--% Chance of Precip.
Yesterday
High -- | Low -- °F
Precip. -- in
7:25 AM 6:25 PM
Waning Crescent, 1% visible
Pressure 30.02 in
Visibility 10.0 miles
Clouds Mostly Cloudy 5000 ft
Overcast 9000 ft
Dew Point 48 °F
Humidity 72%
Rainfall 0.09 in
Snow Depth Not available.
UV 0 out of 12
Pollen 1.40 out of 12
Air Quality Not available.
Flu Activity Local Activity
METAR KAVC 222335Z AUTO 35007KT 10SM BKN050 OVC090 14/09 A3002 RMK AO2

More Conditions Fewer Conditions

Pressure 30.02 in
Visibility 10.0 miles
Clouds Mostly Cloudy 5000 ft
Overcast 9000 ft
Dew Point 48 °F
Humidity 72%
Rainfall 0.09 in
Snow Depth Not available.
UV 0 out of 12
Pollen 1.40 out of 12
Air Quality Not available.
Flu Activity Local Activity
METAR KAVC 222335Z AUTO 35007KT 10SM BKN050 OVC090 14/09 A3002 RMK AO2

More Conditions Fewer Conditions

10-Day Weather Forecast

Almanac

Astronomy

Oct. 22, 2014 Rise Set
Actual Time 7:25 AM EDT 6:25 PM EDT
Civil Twilight 6:59 AM EDT 6:52 PM EDT
Nautical Twilight 6:28 AM EDT 7:22 PM EDT
Astronomical Twilight 5:58 AM EDT 7:52 PM EDT
Moon 6:06 AM EDT 5:50 PM EDT
Length of Visible Light 11h 53m
Length of Day
11h 00m
Tomorrow will be 2m 12s shorter.
Waning Crescent, 1% of the Moon is Illuminated
Today
Waning Crescent
Oct 23
New
Oct 30
First Quarter
Nov 6
Full
Nov 14
Last Quarter

Today's Extremes

State Highs State Lows

Community

WunderPhotos

Upload Photos

1,764,080 photos uploaded!

WunderBlogs® & News

Nearby

Snow Depth

Station Depth Elevation
No new snow has been reported.

Earthquake Activity

City Distance Mag. Time & Date
No recent earthquake activity has been reported nearby.
Minimum magnitude displayed is 2.5.

Coastal Water Temperatures

Place Temperature
No Stations Reporting

Nearby Weather Stations